sensor_id;sensor_type;location;lat;lon;timestamp;temperature;humidity
4081;DHT22;2055;50.074;8.436;2023-02-01T00:00:53;5.00;99.90
4081;DHT22;2055;50.074;8.436;2023-02-01T00:03:19;5.00;99.90
4081;DHT22;2055;50.074;8.436;2023-02-01T00:05:53;5.10;99.90
4081;DHT22;2055;50.074;8.436;2023-02-01T00:08:19;5.20;99.90
4081;DHT22;2055;50.074;8.436;2023-02-01T00:10:44;5.20;99.90
4081;DHT22;2055;50.074;8.436;2023-02-01T00:13:10;5.10;99.90
4081;DHT22;2055;50.074;8.436;2023-02-01T00:15:35;5.10;99.90
4081;DHT22;2055;50.074;8.436;2023-02-01T00:18:01;5.10;99.90
4081;DHT22;2055;50.074;8.436;2023-02-01T00:20:26;5.10;99.90
4081;DHT22;2055;50.074;8.436;2023-02-01T00:22:52;5.20;99.90
4081;DHT22;2055;50.074;8.436;2023-02-01T00:25:17;5.20;99.90
4081;DHT22;2055;50.074;8.436;2023-02-01T00:27:43;5.20;99.90
4081;DHT22;2055;50.074;8.436;2023-02-01T00:30:09;5.20;99.90
4081;DHT22;2055;50.074;8.436;2023-02-01T00:32:35;5.30;99.90
4081;DHT22;2055;50.074;8.436;2023-02-01T00:35:00;5.30;99.90
4081;DHT22;2055;50.074;8.436;2023-02-01T00:37:26;5.30;99.90
4081;DHT22;2055;50.074;8.436;2023-02-01T00:39:51;5.40;99.90
4081;DHT22;2055;50.074;8.436;2023-02-01T00:42:20;5.30;99.90
4081;DHT22;2055;50.074;8.436;2023-02-01T00:44:45;5.30;99.90
4081;DHT22;2055;50.074;8.436;2023-02-01T00:47:11;5.30;99.90
4081;DHT22;2055;50.074;8.436;2023-02-01T00:49:36;5.30;99.90
4081;DHT22;2055;50.074;8.436;2023-02-01T00:52:02;5.30;99.90
4081;DHT22;2055;50.074;8.436;2023-02-01T00:54:27;5.30;99.90
4081;DHT22;2055;50.074;8.436;2023-02-01T00:56:53;5.30;99.90
4081;DHT22;2055;50.074;8.436;2023-02-01T00:59:18;5.30;99.90
4081;DHT22;2055;50.074;8.436;2023-02-01T01:01:44;5.30;99.90
4081;DHT22;2055;50.074;8.436;2023-02-01T01:04:10;5.20;99.90
4081;DHT22;2055;50.074;8.436;2023-02-01T01:06:35;5.20;99.90
4081;DHT22;2055;50.074;8.436;2023-02-01T01:09:03;5.30;99.90
4081;DHT22;2055;50.074;8.436;2023-02-01T01:11:32;5.30;99.90
4081;DHT22;2055;50.074;8.436;2023-02-01T01:14:00;5.30;99.90
4081;DHT22;2055;50.074;8.436;2023-02-01T01:16:27;5.30;99.90
4081;DHT22;2055;50.074;8.436;2023-02-01T01:18:54;5.30;99.90
4081;DHT22;2055;50.074;8.436;2023-02-01T01:21:20;5.30;99.90
4081;DHT22;2055;50.074;8.436;2023-02-01T01:23:46;5.30;99.90
4081;DHT22;2055;50.074;8.436;2023-02-01T01:26:16;5.30;99.90
4081;DHT22;2055;50.074;8.436;2023-02-01T01:28:42;5.30;99.90
4081;DHT22;2055;50.074;8.436;2023-02-01T01:31:09;5.30;99.90
4081;DHT22;2055;50.074;8.436;2023-02-01T01:33:35;5.40;99.90
4081;DHT22;2055;50.074;8.436;2023-02-01T01:36:01;5.40;99.90
4081;DHT22;2055;50.074;8.436;2023-02-01T01:38:27;5.40;99.90
4081;DHT22;2055;50.074;8.436;2023-02-01T01:40:52;5.40;99.90
4081;DHT22;2055;50.074;8.436;2023-02-01T01:43:19;5.50;99.90
4081;DHT22;2055;50.074;8.436;2023-02-01T01:45:47;5.50;99.90
4081;DHT22;2055;50.074;8.436;2023-02-01T01:48:18;5.50;99.90
4081;DHT22;2055;50.074;8.436;2023-02-01T01:50:54;5.50;99.90
4081;DHT22;2055;50.074;8.436;2023-02-01T01:53:27;6.30;99.90
4081;DHT22;2055;50.074;8.436;2023-02-01T01:55:53;5.50;99.90
4081;DHT22;2055;50.074;8.436;2023-02-01T01:58:24;5.50;99.90
4081;DHT22;2055;50.074;8.436;2023-02-01T02:00:52;5.50;99.90
4081;DHT22;2055;50.074;8.436;2023-02-01T02:03:25;5.50;99.90
4081;DHT22;2055;50.074;8.436;2023-02-01T02:05:54;5.50;99.90
4081;DHT22;2055;50.074;8.436;2023-02-01T02:08:21;5.50;99.90
4081;DHT22;2055;50.074;8.436;2023-02-01T02:10:49;5.50;99.90
4081;DHT22;2055;50.074;8.436;2023-02-01T02:13:38;5.50;99.90
4081;DHT22;2055;50.074;8.436;2023-02-01T02:16:40;5.50;99.90
4081;DHT22;2055;50.074;8.436;2023-02-01T02:35:30;5.40;99.90
4081;DHT22;2055;50.074;8.436;2023-02-01T02:43:28;7.80;99.90
4081;DHT22;2055;50.074;8.436;2023-02-01T02:46:34;5.40;99.90
4081;DHT22;2055;50.074;8.436;2023-02-01T02:49:25;5.40;99.90
4081;DHT22;2055;50.074;8.436;2023-02-01T02:52:05;5.40;99.90
4081;DHT22;2055;50.074;8.436;2023-02-01T02:54:54;5.40;99.90
4081;DHT22;2055;50.074;8.436;2023-02-01T02:57:36;5.30;99.90
4081;DHT22;2055;50.074;8.436;2023-02-01T03:00:27;5.30;99.90
4081;DHT22;2055;50.074;8.436;2023-02-01T03:03:12;5.30;99.90
4081;DHT22;2055;50.074;8.436;2023-02-01T03:05:56;5.30;99.90
4081;DHT22;2055;50.074;8.436;2023-02-01T03:08:29;5.30;99.90
4081;DHT22;2055;50.074;8.436;2023-02-01T03:13:56;5.30;99.90
4081;DHT22;2055;50.074;8.436;2023-02-01T03:16:43;5.30;99.90
4081;DHT22;2055;50.074;8.436;2023-02-01T03:19:34;5.30;99.90
4081;DHT22;2055;50.074;8.436;2023-02-01T03:24:52;5.30;99.90
4081;DHT22;2055;50.074;8.436;2023-02-01T03:30:00;5.30;99.90
4081;DHT22;2055;50.074;8.436;2023-02-01T03:32:27;5.30;99.90
4081;DHT22;2055;50.074;8.436;2023-02-01T03:34:53;5.30;99.90
4081;DHT22;2055;50.074;8.436;2023-02-01T03:37:26;5.30;99.90
4081;DHT22;2055;50.074;8.436;2023-02-01T03:39:53;5.30;99.90
4081;DHT22;2055;50.074;8.436;2023-02-01T03:42:31;5.20;99.90
4081;DHT22;2055;50.074;8.436;2023-02-01T03:45:28;5.20;99.90
4081;DHT22;2055;50.074;8.436;2023-02-01T03:47:58;5.20;99.90
4081;DHT22;2055;50.074;8.436;2023-02-01T03:50:26;5.20;99.90
4081;DHT22;2055;50.074;8.436;2023-02-01T03:53:03;5.20;99.90
4081;DHT22;2055;50.074;8.436;2023-02-01T03:55:30;5.20;99.90
4081;DHT22;2055;50.074;8.436;2023-02-01T03:58:04;5.20;99.90
4081;DHT22;2055;50.074;8.436;2023-02-01T04:00:31;5.20;99.90
4081;DHT22;2055;50.074;8.436;2023-02-01T04:02:57;5.20;99.90
4081;DHT22;2055;50.074;8.436;2023-02-01T04:05:23;5.30;99.90
4081;DHT22;2055;50.074;8.436;2023-02-01T04:07:48;5.20;99.90
4081;DHT22;2055;50.074;8.436;2023-02-01T04:10:14;5.20;99.90
4081;DHT22;2055;50.074;8.436;2023-02-01T04:12:40;5.10;99.90
4081;DHT22;2055;50.074;8.436;2023-02-01T04:15:06;5.20;99.90
4081;DHT22;2055;50.074;8.436;2023-02-01T04:17:32;5.20;99.90
4081;DHT22;2055;50.074;8.436;2023-02-01T04:19:57;5.20;99.90
4081;DHT22;2055;50.074;8.436;2023-02-01T04:22:23;5.20;99.90
4081;DHT22;2055;50.074;8.436;2023-02-01T04:24:48;5.20;99.90
4081;DHT22;2055;50.074;8.436;2023-02-01T04:27:14;5.20;99.90
4081;DHT22;2055;50.074;8.436;2023-02-01T04:29:40;5.20;99.90
4081;DHT22;2055;50.074;8.436;2023-02-01T04:32:06;5.20;99.90
4081;DHT22;2055;50.074;8.436;2023-02-01T04:34:31;5.20;99.90
4081;DHT22;2055;50.074;8.436;2023-02-01T04:36:57;5.20;99.90
4081;DHT22;2055;50.074;8.436;2023-02-01T04:39:22;5.20;99.90
4081;DHT22;2055;50.074;8.436;2023-02-01T04:41:48;5.20;99.90
4081;DHT22;2055;50.074;8.436;2023-02-01T04:44:17;5.20;99.90
4081;DHT22;2055;50.074;8.436;2023-02-01T04:46:43;5.20;99.90
4081;DHT22;2055;50.074;8.436;2023-02-01T04:49:11;5.20;99.90
4081;DHT22;2055;50.074;8.436;2023-02-01T04:51:36;5.20;99.90
4081;DHT22;2055;50.074;8.436;2023-02-01T04:54:02;5.20;99.90
4081;DHT22;2055;50.074;8.436;2023-02-01T04:56:28;5.20;99.90
4081;DHT22;2055;50.074;8.436;2023-02-01T04:58:53;5.20;99.90
4081;DHT22;2055;50.074;8.436;2023-02-01T05:01:20;5.30;99.90
4081;DHT22;2055;50.074;8.436;2023-02-01T05:03:46;5.30;99.90
4081;DHT22;2055;50.074;8.436;2023-02-01T05:06:11;5.30;99.90
4081;DHT22;2055;50.074;8.436;2023-02-01T05:08:37;5.30;99.90
4081;DHT22;2055;50.074;8.436;2023-02-01T05:11:02;5.30;99.90
4081;DHT22;2055;50.074;8.436;2023-02-01T05:13:28;5.30;99.90
4081;DHT22;2055;50.074;8.436;2023-02-01T05:16:17;5.30;99.90
4081;DHT22;2055;50.074;8.436;2023-02-01T05:18:43;5.30;99.90
4081;DHT22;2055;50.074;8.436;2023-02-01T05:21:08;5.30;99.90
4081;DHT22;2055;50.074;8.436;2023-02-01T05:23:34;5.30;99.90
4081;DHT22;2055;50.074;8.436;2023-02-01T05:26:19;5.30;99.90
4081;DHT22;2055;50.074;8.436;2023-02-01T05:28:45;5.40;99.90
4081;DHT22;2055;50.074;8.436;2023-02-01T05:31:11;5.40;99.90
4081;DHT22;2055;50.074;8.436;2023-02-01T05:33:36;5.40;99.90
4081;DHT22;2055;50.074;8.436;2023-02-01T05:36:02;5.40;99.90
4081;DHT22;2055;50.074;8.436;2023-02-01T05:38:28;5.40;99.90
4081;DHT22;2055;50.074;8.436;2023-02-01T05:40:55;5.40;99.90
4081;DHT22;2055;50.074;8.436;2023-02-01T05:43:20;5.50;99.90
4081;DHT22;2055;50.074;8.436;2023-02-01T05:45:46;5.50;99.90
4081;DHT22;2055;50.074;8.436;2023-02-01T05:48:11;5.50;99.90
4081;DHT22;2055;50.074;8.436;2023-02-01T05:50:37;5.50;99.90
4081;DHT22;2055;50.074;8.436;2023-02-01T05:53:02;5.50;99.90
4081;DHT22;2055;50.074;8.436;2023-02-01T05:55:28;5.50;99.90
4081;DHT22;2055;50.074;8.436;2023-02-01T05:57:53;5.60;99.90
4081;DHT22;2055;50.074;8.436;2023-02-01T06:00:19;5.60;99.90
4081;DHT22;2055;50.074;8.436;2023-02-01T06:02:45;5.50;99.90
4081;DHT22;2055;50.074;8.436;2023-02-01T06:05:10;5.50;99.90
4081;DHT22;2055;50.074;8.436;2023-02-01T06:07:36;5.50;99.90
4081;DHT22;2055;50.074;8.436;2023-02-01T06:10:01;5.50;99.90
4081;DHT22;2055;50.074;8.436;2023-02-01T06:12:27;5.50;99.90
4081;DHT22;2055;50.074;8.436;2023-02-01T06:14:53;5.60;99.90
4081;DHT22;2055;50.074;8.436;2023-02-01T06:17:19;5.30;99.90
4081;DHT22;2055;50.074;8.436;2023-02-01T06:19:44;5.30;99.90
4081;DHT22;2055;50.074;8.436;2023-02-01T06:22:10;5.30;99.90
4081;DHT22;2055;50.074;8.436;2023-02-01T06:24:35;5.70;99.90
4081;DHT22;2055;50.074;8.436;2023-02-01T06:27:01;5.30;99.90
4081;DHT22;2055;50.074;8.436;2023-02-01T06:29:26;5.20;99.90
4081;DHT22;2055;50.074;8.436;2023-02-01T06:31:52;5.10;99.90
4081;DHT22;2055;50.074;8.436;2023-02-01T06:34:17;5.10;99.90
4081;DHT22;2055;50.074;8.436;2023-02-01T06:36:43;5.20;99.90
4081;DHT22;2055;50.074;8.436;2023-02-01T06:39:09;5.10;99.90
4081;DHT22;2055;50.074;8.436;2023-02-01T06:41:34;5.10;99.90
4081;DHT22;2055;50.074;8.436;2023-02-01T06:44:00;5.00;99.90
4081;DHT22;2055;50.074;8.436;2023-02-01T06:46:26;4.90;99.90
4081;DHT22;2055;50.074;8.436;2023-02-01T06:48:52;4.90;99.90
4081;DHT22;2055;50.074;8.436;2023-02-01T06:51:23;4.90;99.90
4081;DHT22;2055;50.074;8.436;2023-02-01T06:53:48;4.90;99.90
4081;DHT22;2055;50.074;8.436;2023-02-01T06:56:14;5.00;99.90
4081;DHT22;2055;50.074;8.436;2023-02-01T06:58:40;5.00;99.90
4081;DHT22;2055;50.074;8.436;2023-02-01T07:01:06;5.00;99.90
4081;DHT22;2055;50.074;8.436;2023-02-01T07:03:32;5.10;99.90
4081;DHT22;2055;50.074;8.436;2023-02-01T07:05:58;5.10;99.90
4081;DHT22;2055;50.074;8.436;2023-02-01T07:08:24;5.10;99.90
4081;DHT22;2055;50.074;8.436;2023-02-01T07:10:50;5.10;99.90
4081;DHT22;2055;50.074;8.436;2023-02-01T07:13:15;5.10;99.90
4081;DHT22;2055;50.074;8.436;2023-02-01T07:15:41;5.00;99.90
4081;DHT22;2055;50.074;8.436;2023-02-01T07:18:06;5.00;99.90
4081;DHT22;2055;50.074;8.436;2023-02-01T07:20:32;5.00;99.90
4081;DHT22;2055;50.074;8.436;2023-02-01T07:22:57;5.00;99.90
4081;DHT22;2055;50.074;8.436;2023-02-01T07:25:23;5.00;99.90
4081;DHT22;2055;50.074;8.436;2023-02-01T07:27:49;5.00;99.90
4081;DHT22;2055;50.074;8.436;2023-02-01T07:30:15;5.20;99.90
4081;DHT22;2055;50.074;8.436;2023-02-01T07:32:43;5.00;99.90
4081;DHT22;2055;50.074;8.436;2023-02-01T07:35:09;5.20;99.90
4081;DHT22;2055;50.074;8.436;2023-02-01T07:37:34;5.10;99.90
4081;DHT22;2055;50.074;8.436;2023-02-01T07:40:00;5.20;99.90
4081;DHT22;2055;50.074;8.436;2023-02-01T07:42:25;5.20;99.90
4081;DHT22;2055;50.074;8.436;2023-02-01T07:44:51;5.30;99.90
4081;DHT22;2055;50.074;8.436;2023-02-01T07:47:16;5.30;99.90
4081;DHT22;2055;50.074;8.436;2023-02-01T07:49:41;5.40;99.90
4081;DHT22;2055;50.074;8.436;2023-02-01T07:52:07;5.40;99.90
4081;DHT22;2055;50.074;8.436;2023-02-01T07:54:32;5.50;99.90
4081;DHT22;2055;50.074;8.436;2023-02-01T07:56:58;5.50;99.90
4081;DHT22;2055;50.074;8.436;2023-02-01T07:59:23;5.60;99.90
4081;DHT22;2055;50.074;8.436;2023-02-01T08:01:49;5.60;99.90
4081;DHT22;2055;50.074;8.436;2023-02-01T08:04:14;5.70;99.90
4081;DHT22;2055;50.074;8.436;2023-02-01T08:06:40;5.80;99.90
4081;DHT22;2055;50.074;8.436;2023-02-01T08:09:07;5.80;99.90
4081;DHT22;2055;50.074;8.436;2023-02-01T08:11:36;5.90;99.90
4081;DHT22;2055;50.074;8.436;2023-02-01T08:14:03;6.00;99.90
4081;DHT22;2055;50.074;8.436;2023-02-01T08:16:29;6.10;99.90
4081;DHT22;2055;50.074;8.436;2023-02-01T08:18:54;6.20;99.90
4081;DHT22;2055;50.074;8.436;2023-02-01T08:21:25;6.30;99.90
4081;DHT22;2055;50.074;8.436;2023-02-01T08:23:52;6.40;99.90
4081;DHT22;2055;50.074;8.436;2023-02-01T08:26:23;6.50;99.90
4081;DHT22;2055;50.074;8.436;2023-02-01T08:28:54;6.60;99.90
4081;DHT22;2055;50.074;8.436;2023-02-01T08:31:22;6.70;99.90
4081;DHT22;2055;50.074;8.436;2023-02-01T08:33:53;6.70;99.90
4081;DHT22;2055;50.074;8.436;2023-02-01T08:36:20;6.70;99.90
4081;DHT22;2055;50.074;8.436;2023-02-01T08:38:45;6.80;99.90
4081;DHT22;2055;50.074;8.436;2023-02-01T08:41:14;6.90;99.90
4081;DHT22;2055;50.074;8.436;2023-02-01T08:43:41;6.90;99.90
4081;DHT22;2055;50.074;8.436;2023-02-01T08:46:07;6.90;99.90
4081;DHT22;2055;50.074;8.436;2023-02-01T08:48:34;6.90;99.90
4081;DHT22;2055;50.074;8.436;2023-02-01T08:51:04;6.90;99.90
4081;DHT22;2055;50.074;8.436;2023-02-01T08:53:30;6.80;99.90
4081;DHT22;2055;50.074;8.436;2023-02-01T08:55:55;6.70;99.90
4081;DHT22;2055;50.074;8.436;2023-02-01T08:58:21;6.70;99.90
4081;DHT22;2055;50.074;8.436;2023-02-01T09:00:47;6.70;99.90
4081;DHT22;2055;50.074;8.436;2023-02-01T09:03:14;6.70;99.90
4081;DHT22;2055;50.074;8.436;2023-02-01T09:05:40;6.60;99.90
4081;DHT22;2055;50.074;8.436;2023-02-01T09:08:06;6.60;99.90
4081;DHT22;2055;50.074;8.436;2023-02-01T09:10:32;6.60;99.90
4081;DHT22;2055;50.074;8.436;2023-02-01T09:12:57;6.50;99.90
4081;DHT22;2055;50.074;8.436;2023-02-01T09:15:23;6.50;99.90
4081;DHT22;2055;50.074;8.436;2023-02-01T09:17:49;6.50;99.90
4081;DHT22;2055;50.074;8.436;2023-02-01T09:20:14;6.50;99.90
4081;DHT22;2055;50.074;8.436;2023-02-01T09:22:40;6.50;99.90
4081;DHT22;2055;50.074;8.436;2023-02-01T09:25:07;6.50;99.90
4081;DHT22;2055;50.074;8.436;2023-02-01T09:27:33;6.50;99.90
4081;DHT22;2055;50.074;8.436;2023-02-01T09:29:59;6.60;99.90
4081;DHT22;2055;50.074;8.436;2023-02-01T09:32:25;6.60;99.90
4081;DHT22;2055;50.074;8.436;2023-02-01T09:34:51;6.60;99.90
4081;DHT22;2055;50.074;8.436;2023-02-01T09:37:18;6.70;99.90
4081;DHT22;2055;50.074;8.436;2023-02-01T09:39:44;6.80;99.90
4081;DHT22;2055;50.074;8.436;2023-02-01T09:45:37;7.10;99.90
4081;DHT22;2055;50.074;8.436;2023-02-01T09:47:51;7.20;99.90
4081;DHT22;2055;50.074;8.436;2023-02-01T09:50:30;7.30;99.90
4081;DHT22;2055;50.074;8.436;2023-02-01T09:53:02;7.20;99.90
4081;DHT22;2055;50.074;8.436;2023-02-01T09:55:41;7.10;99.90
4081;DHT22;2055;50.074;8.436;2023-02-01T09:58:14;7.10;99.90
4081;DHT22;2055;50.074;8.436;2023-02-01T10:00:47;7.10;99.90
4081;DHT22;2055;50.074;8.436;2023-02-01T10:03:13;7.00;99.90
4081;DHT22;2055;50.074;8.436;2023-02-01T10:11:46;7.00;99.90
4081;DHT22;2055;50.074;8.436;2023-02-01T10:22:41;7.50;99.90
4081;DHT22;2055;50.074;8.436;2023-02-01T10:27:46;7.60;99.90
4081;DHT22;2055;50.074;8.436;2023-02-01T10:32:39;7.70;99.90
4081;DHT22;2055;50.074;8.436;2023-02-01T10:35:13;7.80;99.90
4081;DHT22;2055;50.074;8.436;2023-02-01T10:37:41;7.80;99.90
4081;DHT22;2055;50.074;8.436;2023-02-01T10:40:24;7.70;99.90
4081;DHT22;2055;50.074;8.436;2023-02-01T10:42:56;7.60;99.90
4081;DHT22;2055;50.074;8.436;2023-02-01T10:45:26;7.50;99.90
4081;DHT22;2055;50.074;8.436;2023-02-01T10:47:54;7.40;99.90
4081;DHT22;2055;50.074;8.436;2023-02-01T10:50:34;7.30;99.90
4081;DHT22;2055;50.074;8.436;2023-02-01T10:53:09;7.30;99.90
4081;DHT22;2055;50.074;8.436;2023-02-01T10:55:45;7.30;99.90
4081;DHT22;2055;50.074;8.436;2023-02-01T10:58:17;7.30;99.90
4081;DHT22;2055;50.074;8.436;2023-02-01T11:05:58;7.20;99.90
4081;DHT22;2055;50.074;8.436;2023-02-01T11:08:24;7.40;99.90
4081;DHT22;2055;50.074;8.436;2023-02-01T11:10:58;7.40;99.90
4081;DHT22;2055;50.074;8.436;2023-02-01T11:13:30;7.40;99.90
4081;DHT22;2055;50.074;8.436;2023-02-01T11:15:57;7.50;99.90
4081;DHT22;2055;50.074;8.436;2023-02-01T11:18:28;7.60;99.90
4081;DHT22;2055;50.074;8.436;2023-02-01T11:20:54;7.60;99.90
4081;DHT22;2055;50.074;8.436;2023-02-01T11:23:29;7.60;99.90
4081;DHT22;2055;50.074;8.436;2023-02-01T11:28:29;7.50;99.90
4081;DHT22;2055;50.074;8.436;2023-02-01T11:30:59;7.40;99.90
4081;DHT22;2055;50.074;8.436;2023-02-01T11:33:30;7.50;99.90
4081;DHT22;2055;50.074;8.436;2023-02-01T11:35:59;8.10;99.90
4081;DHT22;2055;50.074;8.436;2023-02-01T11:38:28;9.00;99.90
4081;DHT22;2055;50.074;8.436;2023-02-01T11:40:54;8.20;99.90
4081;DHT22;2055;50.074;8.436;2023-02-01T11:43:27;7.80;99.90
4081;DHT22;2055;50.074;8.436;2023-02-01T11:46:02;7.80;99.90
4081;DHT22;2055;50.074;8.436;2023-02-01T11:48:32;7.80;99.90
4081;DHT22;2055;50.074;8.436;2023-02-01T11:53:58;7.70;99.90
4081;DHT22;2055;50.074;8.436;2023-02-01T11:56:46;7.70;99.90
4081;DHT22;2055;50.074;8.436;2023-02-01T12:11:08;7.70;99.90
4081;DHT22;2055;50.074;8.436;2023-02-01T12:22:11;7.50;99.90
4081;DHT22;2055;50.074;8.436;2023-02-01T12:27:42;7.50;99.90
4081;DHT22;2055;50.074;8.436;2023-02-01T12:33:03;7.60;99.90
4081;DHT22;2055;50.074;8.436;2023-02-01T12:40:56;7.90;99.90
4081;DHT22;2055;50.074;8.436;2023-02-01T12:46:16;7.50;99.90
4081;DHT22;2055;50.074;8.436;2023-02-01T12:51:41;7.30;99.90
4081;DHT22;2055;50.074;8.436;2023-02-01T12:54:18;7.30;99.90
4081;DHT22;2055;50.074;8.436;2023-02-01T12:57:08;7.30;99.90
4081;DHT22;2055;50.074;8.436;2023-02-01T12:59:47;7.20;99.90
4081;DHT22;2055;50.074;8.436;2023-02-01T13:05:12;7.20;99.90
4081;DHT22;2055;50.074;8.436;2023-02-01T13:07:43;7.20;99.90
4081;DHT22;2055;50.074;8.436;2023-02-01T13:13:09;7.30;99.90
4081;DHT22;2055;50.074;8.436;2023-02-01T13:16:18;7.30;99.90
4081;DHT22;2055;50.074;8.436;2023-02-01T13:18:51;7.30;99.90
4081;DHT22;2055;50.074;8.436;2023-02-01T13:21:29;7.30;99.90
4081;DHT22;2055;50.074;8.436;2023-02-01T13:23:57;7.30;99.90
4081;DHT22;2055;50.074;8.436;2023-02-01T13:26:23;7.30;99.90
4081;DHT22;2055;50.074;8.436;2023-02-01T13:39:50;7.30;99.90
4081;DHT22;2055;50.074;8.436;2023-02-01T13:42:24;7.30;99.90
4081;DHT22;2055;50.074;8.436;2023-02-01T13:44:56;7.30;99.90
4081;DHT22;2055;50.074;8.436;2023-02-01T13:47:30;7.40;99.90
4081;DHT22;2055;50.074;8.436;2023-02-01T13:49:59;7.40;99.90
4081;DHT22;2055;50.074;8.436;2023-02-01T13:57:46;7.50;99.90
4081;DHT22;2055;50.074;8.436;2023-02-01T14:10:56;7.80;99.90
4081;DHT22;2055;50.074;8.436;2023-02-01T14:13:30;7.90;99.90
4081;DHT22;2055;50.074;8.436;2023-02-01T14:21:22;8.00;99.90
4081;DHT22;2055;50.074;8.436;2023-02-01T14:23:58;8.00;99.90
4081;DHT22;2055;50.074;8.436;2023-02-01T14:37:32;8.10;99.90
4081;DHT22;2055;50.074;8.436;2023-02-01T14:40:05;8.10;99.90
4081;DHT22;2055;50.074;8.436;2023-02-01T14:42:44;8.10;99.90
4081;DHT22;2055;50.074;8.436;2023-02-01T14:47:51;8.00;99.90
4081;DHT22;2055;50.074;8.436;2023-02-01T14:53:14;8.00;99.90
4081;DHT22;2055;50.074;8.436;2023-02-01T15:01:33;8.10;99.90
4081;DHT22;2055;50.074;8.436;2023-02-01T15:06:49;8.30;99.90
4081;DHT22;2055;50.074;8.436;2023-02-01T15:09:31;8.40;99.90
4081;DHT22;2055;50.074;8.436;2023-02-01T15:14:27;8.20;99.90
4081;DHT22;2055;50.074;8.436;2023-02-01T15:16:53;8.10;99.90
4081;DHT22;2055;50.074;8.436;2023-02-01T15:19:21;8.00;99.90
4081;DHT22;2055;50.074;8.436;2023-02-01T15:21:53;8.00;99.90
4081;DHT22;2055;50.074;8.436;2023-02-01T15:24:22;8.00;99.90
4081;DHT22;2055;50.074;8.436;2023-02-01T15:26:48;7.90;99.90
4081;DHT22;2055;50.074;8.436;2023-02-01T15:29:14;7.90;99.90
4081;DHT22;2055;50.074;8.436;2023-02-01T15:31:46;7.90;99.90
4081;DHT22;2055;50.074;8.436;2023-02-01T15:34:12;7.90;99.90
4081;DHT22;2055;50.074;8.436;2023-02-01T15:36:39;7.90;99.90
4081;DHT22;2055;50.074;8.436;2023-02-01T15:41:51;7.90;99.90
4081;DHT22;2055;50.074;8.436;2023-02-01T15:44:39;7.90;99.90
4081;DHT22;2055;50.074;8.436;2023-02-01T15:47:27;7.90;99.90
4081;DHT22;2055;50.074;8.436;2023-02-01T15:49:55;7.90;99.90
4081;DHT22;2055;50.074;8.436;2023-02-01T15:52:25;7.90;99.90
4081;DHT22;2055;50.074;8.436;2023-02-01T15:54:56;7.80;99.90
4081;DHT22;2055;50.074;8.436;2023-02-01T15:57:29;7.80;99.90
4081;DHT22;2055;50.074;8.436;2023-02-01T16:00:02;7.90;99.90
4081;DHT22;2055;50.074;8.436;2023-02-01T16:02:59;7.90;99.90
4081;DHT22;2055;50.074;8.436;2023-02-01T16:05:42;7.90;99.90
4081;DHT22;2055;50.074;8.436;2023-02-01T16:08:22;7.90;99.90
4081;DHT22;2055;50.074;8.436;2023-02-01T16:10:51;7.90;99.90
4081;DHT22;2055;50.074;8.436;2023-02-01T16:13:18;7.80;99.90
4081;DHT22;2055;50.074;8.436;2023-02-01T16:15:43;7.80;99.90
4081;DHT22;2055;50.074;8.436;2023-02-01T16:18:11;7.80;99.90
4081;DHT22;2055;50.074;8.436;2023-02-01T16:20:38;7.80;99.90
4081;DHT22;2055;50.074;8.436;2023-02-01T16:23:05;7.80;99.90
4081;DHT22;2055;50.074;8.436;2023-02-01T16:25:31;7.80;99.90
4081;DHT22;2055;50.074;8.436;2023-02-01T16:27:57;7.80;99.90
4081;DHT22;2055;50.074;8.436;2023-02-01T16:30:22;7.80;99.90
4081;DHT22;2055;50.074;8.436;2023-02-01T16:32:52;7.80;99.90
4081;DHT22;2055;50.074;8.436;2023-02-01T16:35:34;7.60;99.90
4081;DHT22;2055;50.074;8.436;2023-02-01T16:38:15;7.60;99.90
4081;DHT22;2055;50.074;8.436;2023-02-01T16:40:44;7.60;99.90
4081;DHT22;2055;50.074;8.436;2023-02-01T16:43:19;7.60;99.90
4081;DHT22;2055;50.074;8.436;2023-02-01T16:45:46;7.50;99.90
4081;DHT22;2055;50.074;8.436;2023-02-01T16:48:35;7.50;99.90
4081;DHT22;2055;50.074;8.436;2023-02-01T16:51:03;7.40;99.90
4081;DHT22;2055;50.074;8.436;2023-02-01T16:53:31;7.40;99.90
4081;DHT22;2055;50.074;8.436;2023-02-01T16:55:57;7.40;99.90
4081;DHT22;2055;50.074;8.436;2023-02-01T16:58:24;7.40;99.90
4081;DHT22;2055;50.074;8.436;2023-02-01T17:00:51;7.40;99.90
4081;DHT22;2055;50.074;8.436;2023-02-01T17:03:18;7.40;99.90
4081;DHT22;2055;50.074;8.436;2023-02-01T17:05:46;7.40;99.90
4081;DHT22;2055;50.074;8.436;2023-02-01T17:08:14;7.30;99.90
4081;DHT22;2055;50.074;8.436;2023-02-01T17:10:41;7.30;99.90
4081;DHT22;2055;50.074;8.436;2023-02-01T17:13:14;7.40;99.90
4081;DHT22;2055;50.074;8.436;2023-02-01T17:15:47;7.30;99.90
4081;DHT22;2055;50.074;8.436;2023-02-01T17:18:16;7.20;99.90
4081;DHT22;2055;50.074;8.436;2023-02-01T17:20:42;7.20;99.90
4081;DHT22;2055;50.074;8.436;2023-02-01T17:23:08;7.20;99.90
4081;DHT22;2055;50.074;8.436;2023-02-01T17:25:33;7.30;99.90
4081;DHT22;2055;50.074;8.436;2023-02-01T17:27:59;7.30;99.90
4081;DHT22;2055;50.074;8.436;2023-02-01T17:30:24;7.30;99.90
4081;DHT22;2055;50.074;8.436;2023-02-01T17:32:50;7.30;99.90
4081;DHT22;2055;50.074;8.436;2023-02-01T17:35:20;7.20;99.90
4081;DHT22;2055;50.074;8.436;2023-02-01T17:37:46;7.20;99.90
4081;DHT22;2055;50.074;8.436;2023-02-01T17:40:12;7.20;99.90
4081;DHT22;2055;50.074;8.436;2023-02-01T17:42:38;7.20;99.90
4081;DHT22;2055;50.074;8.436;2023-02-01T17:45:32;7.10;99.90
4081;DHT22;2055;50.074;8.436;2023-02-01T17:48:01;7.10;99.90
4081;DHT22;2055;50.074;8.436;2023-02-01T17:50:30;7.00;99.90
4081;DHT22;2055;50.074;8.436;2023-02-01T17:52:56;7.00;99.90
4081;DHT22;2055;50.074;8.436;2023-02-01T17:55:24;6.90;99.90
4081;DHT22;2055;50.074;8.436;2023-02-01T17:57:50;6.80;99.90
4081;DHT22;2055;50.074;8.436;2023-02-01T18:00:17;6.90;99.90
4081;DHT22;2055;50.074;8.436;2023-02-01T18:02:43;6.90;99.90
4081;DHT22;2055;50.074;8.436;2023-02-01T18:08:03;7.00;99.90
4081;DHT22;2055;50.074;8.436;2023-02-01T18:10:28;7.00;99.90
4081;DHT22;2055;50.074;8.436;2023-02-01T18:12:54;7.00;99.90
4081;DHT22;2055;50.074;8.436;2023-02-01T18:15:22;6.90;99.90
4081;DHT22;2055;50.074;8.436;2023-02-01T18:17:48;6.90;99.90
4081;DHT22;2055;50.074;8.436;2023-02-01T18:20:17;6.90;99.90
4081;DHT22;2055;50.074;8.436;2023-02-01T18:22:43;6.80;99.90
4081;DHT22;2055;50.074;8.436;2023-02-01T18:27:47;6.70;99.90
4081;DHT22;2055;50.074;8.436;2023-02-01T18:30:14;6.70;99.90
4081;DHT22;2055;50.074;8.436;2023-02-01T18:32:40;6.70;99.90
4081;DHT22;2055;50.074;8.436;2023-02-01T18:35:32;6.70;99.90
4081;DHT22;2055;50.074;8.436;2023-02-01T18:37:58;6.70;99.90
4081;DHT22;2055;50.074;8.436;2023-02-01T18:40:30;6.60;99.90
4081;DHT22;2055;50.074;8.436;2023-02-01T18:42:57;6.60;99.90
4081;DHT22;2055;50.074;8.436;2023-02-01T18:45:36;6.60;99.90
4081;DHT22;2055;50.074;8.436;2023-02-01T18:48:03;6.60;99.90
4081;DHT22;2055;50.074;8.436;2023-02-01T18:50:31;6.60;99.90
4081;DHT22;2055;50.074;8.436;2023-02-01T18:52:58;6.60;99.90
4081;DHT22;2055;50.074;8.436;2023-02-01T18:55:24;6.50;99.90
4081;DHT22;2055;50.074;8.436;2023-02-01T18:57:51;6.50;99.90
4081;DHT22;2055;50.074;8.436;2023-02-01T19:00:17;6.40;99.90
4081;DHT22;2055;50.074;8.436;2023-02-01T19:02:44;6.40;99.90
4081;DHT22;2055;50.074;8.436;2023-02-01T19:05:11;6.50;99.90
4081;DHT22;2055;50.074;8.436;2023-02-01T19:07:37;6.40;99.90
4081;DHT22;2055;50.074;8.436;2023-02-01T19:10:04;6.40;99.90
4081;DHT22;2055;50.074;8.436;2023-02-01T19:12:31;6.30;99.90
4081;DHT22;2055;50.074;8.436;2023-02-01T19:15:01;6.40;99.90
4081;DHT22;2055;50.074;8.436;2023-02-01T19:17:28;6.40;99.90
4081;DHT22;2055;50.074;8.436;2023-02-01T19:19:54;6.40;99.90
4081;DHT22;2055;50.074;8.436;2023-02-01T19:22:19;6.50;99.90
4081;DHT22;2055;50.074;8.436;2023-02-01T19:24:45;6.50;99.90